SAS4177 ENBR-ENZV
Flight info
| Callsign | SAS4177 |
|---|---|
| Flight time | 0h 20m |
| Altitude | 17000 |
| Route | BEGOD |
| Aircraft | B737/M-SDE2E3FGHIRWXY/LB1 |
Departure
| Time | 2026-04-25 19:01 |
|---|---|
| Airport | Bergen Airport, Flesland (ENBR) |
Arrival
| Time | 2026-04-25 19:22 |
|---|---|
| Airport | Stavanger Airport, Sola (ENZV) |
| Time | Latitude | Longitude | Altitude | Speed | Heading |
|---|---|---|---|---|---|
| 2026-04-25 18:48 | 60.28662 | 5.22935 | 175 ft | 0 kts | 81° |
| 2026-04-25 18:55 | 60.28660 | 5.22907 | 175 ft | 4 kts | 81° |
| 2026-04-25 18:55 | 60.28657 | 5.22864 | 174 ft | 0 kts | 81° |
| 2026-04-25 18:55 | 60.28657 | 5.22863 | 174 ft | 1 kts | 81° |
| 2026-04-25 18:58 | 60.28646 | 5.22848 | 173 ft | 7 kts | 249° |
| 2026-04-25 18:58 | 60.28678 | 5.22701 | 171 ft | 11 kts | 275° |
| 2026-04-25 18:59 | 60.28681 | 5.22387 | 168 ft | 13 kts | 230° |
| 2026-04-25 18:59 | 60.28455 | 5.22433 | 161 ft | 22 kts | 169° |
| 2026-04-25 19:00 | 60.28102 | 5.22541 | 151 ft | 23 kts | 186° |
| 2026-04-25 19:00 | 60.28052 | 5.22300 | 152 ft | 20 kts | 283° |
| 2026-04-25 19:01 | 60.28170 | 5.22208 | 152 ft | 29 kts | 351° |
| 2026-04-25 19:01 | 60.28644 | 5.22049 | 160 ft | 106 kts | 351° |
| 2026-04-25 19:01 | 60.29571 | 5.21747 | 274 ft | 155 kts | 349° |
| 2026-04-25 19:01 | 60.30693 | 5.21414 | 1001 ft | 170 kts | 351° |
| 2026-04-25 19:02 | 60.33200 | 5.20696 | 2618 ft | 197 kts | 352° |
| 2026-04-25 19:02 | 60.34665 | 5.20190 | 3109 ft | 225 kts | 351° |
| 2026-04-25 19:02 | 60.36234 | 5.19625 | 4128 ft | 231 kts | 351° |
| 2026-04-25 19:03 | 60.38340 | 5.18660 | 5612 ft | 237 kts | 335° |
| 2026-04-25 19:03 | 60.40163 | 5.14464 | 7400 ft | 251 kts | 297° |
| 2026-04-25 19:03 | 60.40495 | 5.10931 | 8465 ft | 264 kts | 275° |
| 2026-04-25 19:04 | 60.38801 | 5.03996 | 10392 ft | 306 kts | 226° |
| 2026-04-25 19:04 | 60.36880 | 5.01731 | 10901 ft | 337 kts | 206° |
| 2026-04-25 19:05 | 60.31898 | 5.00945 | 11728 ft | 386 kts | 181° |
| 2026-04-25 19:05 | 60.26274 | 5.01439 | 12545 ft | 423 kts | 174° |
| 2026-04-25 19:05 | 60.23327 | 5.02581 | 12958 ft | 438 kts | 169° |
| 2026-04-25 19:06 | 60.20325 | 5.03862 | 13701 ft | 444 kts | 169° |
| 2026-04-25 19:06 | 60.14193 | 5.06151 | 15204 ft | 452 kts | 174° |
| 2026-04-25 19:06 | 60.11050 | 5.06874 | 15929 ft | 458 kts | 176° |
| 2026-04-25 19:07 | 60.04617 | 5.08093 | 17144 ft | 473 kts | 177° |
| 2026-04-25 19:07 | 60.01296 | 5.08730 | 17157 ft | 479 kts | 177° |
| 2026-04-25 19:08 | 59.94633 | 5.10103 | 17178 ft | 482 kts | 176° |
| 2026-04-25 19:08 | 59.91288 | 5.10814 | 17176 ft | 483 kts | 176° |
| 2026-04-25 19:09 | 59.81290 | 5.12928 | 17174 ft | 483 kts | 176° |
| 2026-04-25 19:09 | 59.79063 | 5.13394 | 17176 ft | 483 kts | 176° |
| 2026-04-25 19:09 | 59.71306 | 5.15876 | 17172 ft | 484 kts | 171° |
| 2026-04-25 19:10 | 59.67989 | 5.17165 | 17175 ft | 486 kts | 171° |
| 2026-04-25 19:10 | 59.64713 | 5.18445 | 16970 ft | 483 kts | 171° |
| 2026-04-25 19:10 | 59.61425 | 5.19705 | 16711 ft | 479 kts | 171° |
| 2026-04-25 19:10 | 59.58146 | 5.20930 | 16445 ft | 475 kts | 171° |
| 2026-04-25 19:11 | 59.54935 | 5.22107 | 16170 ft | 461 kts | 171° |
| 2026-04-25 19:11 | 59.51838 | 5.23230 | 15900 ft | 444 kts | 172° |
| 2026-04-25 19:11 | 59.48886 | 5.24291 | 15657 ft | 429 kts | 172° |
| 2026-04-25 19:11 | 59.45986 | 5.25328 | 15258 ft | 419 kts | 172° |
| 2026-04-25 19:12 | 59.43127 | 5.26345 | 14768 ft | 414 kts | 171° |
| 2026-04-25 19:12 | 59.40305 | 5.27348 | 14211 ft | 411 kts | 171° |
| 2026-04-25 19:12 | 59.37481 | 5.28349 | 13430 ft | 410 kts | 171° |
| 2026-04-25 19:12 | 59.34709 | 5.29333 | 12625 ft | 401 kts | 171° |
| 2026-04-25 19:13 | 59.31992 | 5.30298 | 11846 ft | 392 kts | 171° |
| 2026-04-25 19:13 | 59.29336 | 5.31240 | 11097 ft | 384 kts | 171° |
| 2026-04-25 19:13 | 59.26740 | 5.32159 | 10630 ft | 368 kts | 171° |
| 2026-04-25 19:13 | 59.24289 | 5.33027 | 10375 ft | 349 kts | 170° |
| 2026-04-25 19:14 | 59.21983 | 5.33842 | 10115 ft | 332 kts | 170° |
| 2026-04-25 19:14 | 59.21219 | 5.34112 | 10020 ft | 327 kts | 170° |
| 2026-04-25 19:14 | 59.17585 | 5.35391 | 9275 ft | 315 kts | 170° |
| 2026-04-25 19:14 | 59.15432 | 5.36146 | 8906 ft | 313 kts | 170° |
| 2026-04-25 19:15 | 59.13354 | 5.36875 | 8483 ft | 313 kts | 170° |
| 2026-04-25 19:15 | 59.11208 | 5.37627 | 8049 ft | 313 kts | 170° |
| 2026-04-25 19:15 | 59.09064 | 5.38378 | 7603 ft | 312 kts | 169° |
| 2026-04-25 19:15 | 59.06926 | 5.39126 | 7175 ft | 311 kts | 169° |
| 2026-04-25 19:16 | 59.04794 | 5.39871 | 6750 ft | 310 kts | 169° |
| 2026-04-25 19:16 | 59.02703 | 5.40600 | 6316 ft | 309 kts | 169° |
| 2026-04-25 19:16 | 59.00606 | 5.41332 | 5850 ft | 302 kts | 169° |
| 2026-04-25 19:16 | 58.98559 | 5.42044 | 5392 ft | 295 kts | 169° |
| 2026-04-25 19:17 | 58.96559 | 5.42739 | 4932 ft | 289 kts | 169° |
| 2026-04-25 19:17 | 58.94598 | 5.43421 | 4479 ft | 283 kts | 169° |
| 2026-04-25 19:17 | 58.92705 | 5.44078 | 4189 ft | 271 kts | 169° |
| 2026-04-25 19:17 | 58.90886 | 5.44708 | 3916 ft | 261 kts | 169° |
| 2026-04-25 19:18 | 58.89130 | 5.45315 | 3636 ft | 252 kts | 169° |
| 2026-04-25 19:18 | 58.87429 | 5.45903 | 3371 ft | 244 kts | 169° |
| 2026-04-25 19:18 | 58.85823 | 5.46674 | 3086 ft | 231 kts | 148° |
| 2026-04-25 19:18 | 58.84746 | 5.48705 | 2843 ft | 207 kts | 110° |
| 2026-04-25 19:19 | 58.84333 | 5.51197 | 2598 ft | 187 kts | 95° |
| 2026-04-25 19:19 | 58.84040 | 5.53553 | 2308 ft | 173 kts | 95° |
| 2026-04-25 19:19 | 58.83742 | 5.55725 | 2112 ft | 166 kts | 97° |
| 2026-04-25 19:19 | 58.83631 | 5.56421 | 2124 ft | 168 kts | 98° |
| 2026-04-25 19:20 | 58.83150 | 5.59789 | 1774 ft | 147 kts | 87° |
| 2026-04-25 19:20 | 58.83233 | 5.61680 | 1569 ft | 141 kts | 61° |
| 2026-04-25 19:20 | 58.83769 | 5.63140 | 1383 ft | 126 kts | 28° |
| 2026-04-25 19:20 | 58.84553 | 5.63812 | 971 ft | 123 kts | 7° |
| 2026-04-25 19:21 | 58.85414 | 5.63895 | 530 ft | 124 kts | 355° |
| 2026-04-25 19:21 | 58.87092 | 5.63798 | 66 ft | 123 kts | 356° |
| 2026-04-25 19:21 | 58.87846 | 5.63779 | 32 ft | 88 kts | 359° |
| 2026-04-25 19:22 | 58.88313 | 5.63765 | 30 ft | 54 kts | 359° |
| 2026-04-25 19:22 | 58.88615 | 5.63755 | 28 ft | 28 kts | 359° |
| 2026-04-25 19:22 | 58.88705 | 5.63468 | 29 ft | 9 kts | 259° |
| 2026-04-25 19:23 | 58.88655 | 5.63414 | 30 ft | 11 kts | 179° |
| 2026-04-25 19:23 | 58.88510 | 5.63420 | 30 ft | 10 kts | 179° |
| 2026-04-25 19:23 | 58.88448 | 5.63358 | 28 ft | 13 kts | 248° |
| 2026-04-25 19:24 | 58.88394 | 5.63214 | 28 ft | 16 kts | 174° |
| 2026-04-25 19:24 | 58.88325 | 5.63140 | 25 ft | 13 kts | 256° |
| 2026-04-25 19:24 | 58.88314 | 5.63062 | 27 ft | 0 kts | 254° |